Time;durP1;ratioP1;P1;durP2;ratioP2;P2;SDS_P1;SDS_P2;PMS_P1;PMS_P2;Temp;Humidity;BMP_temperature;BMP_pressure;BME280_temperature;BME280_humidity;BME280_pressure;Samples;Min_cycle;Max_cycle;Signal;HPM_P1;HPM_P2
2023/03/16 00:00:12;;;;;;;4.45;2.50;;;3.30;99.90;;;;;;5113484;28;20050;-63
2023/03/16 00:02:39;;;;;;;5.15;2.78;;;3.30;99.90;;;;;;5114402;28;20448;-63
2023/03/16 00:05:07;;;;;;;9.55;2.50;;;3.30;99.90;;;;;;5114816;28;20051;-64
2023/03/16 00:07:34;;;;;;;5.72;2.67;;;3.40;99.90;;;;;;5115040;28;20097;-63
2023/03/16 00:10:02;;;;;;;4.70;2.40;;;3.40;99.90;;;;;;5114131;28;20047;-63
2023/03/16 00:12:33;;;;;;;5.85;2.55;;;3.40;99.90;;;;;;5113463;28;20127;-64
2023/03/16 00:15:00;;;;;;;6.22;2.50;;;3.40;99.90;;;;;;5113875;28;20082;-63
2023/03/16 00:17:28;;;;;;;4.97;2.53;;;3.40;99.90;;;;;;5114919;28;20096;-63
2023/03/16 00:19:57;;;;;;;6.80;2.65;;;3.40;99.90;;;;;;5113525;28;20051;-63
2023/03/16 00:22:25;;;;;;;5.57;2.47;;;3.40;99.90;;;;;;5114075;28;20400;-63
2023/03/16 00:24:52;;;;;;;5.05;2.53;;;3.40;99.90;;;;;;5112827;28;20552;-63
2023/03/16 00:27:21;;;;;;;5.43;2.63;;;3.40;99.90;;;;;;5114231;28;20163;-63
2023/03/16 00:29:54;;;;;;;7.13;3.00;;;3.40;99.90;;;;;;5114001;28;20134;-63
2023/03/16 00:32:23;;;;;;;4.60;2.47;;;3.40;99.90;;;;;;5114857;28;20057;-63
2023/03/16 00:34:51;;;;;;;8.48;2.45;;;3.40;99.90;;;;;;5112872;28;20044;-63
2023/03/16 00:37:22;;;;;;;4.47;2.33;;;3.40;99.90;;;;;;5113238;28;20055;-64
2023/03/16 00:39:50;;;;;;;8.27;2.88;;;3.40;99.90;;;;;;5145956;27;20062;-63
2023/03/16 00:42:18;;;;;;;7.07;2.30;;;3.40;99.90;;;;;;5114451;28;20138;-63
2023/03/16 00:44:45;;;;;;;7.78;2.65;;;3.40;99.90;;;;;;5113646;28;20491;-64
2023/03/16 00:47:14;;;;;;;8.25;2.97;;;3.40;99.90;;;;;;5112702;28;20055;-63
2023/03/16 00:49:42;;;;;;;6.45;2.60;;;3.40;99.90;;;;;;5113279;28;20079;-63
2023/03/16 00:52:13;;;;;;;6.63;2.50;;;3.40;99.90;;;;;;5113550;28;20442;-64
2023/03/16 00:54:42;;;;;;;5.97;2.58;;;3.40;99.90;;;;;;5112591;28;20055;-64
2023/03/16 00:57:10;;;;;;;4.88;2.60;;;3.50;99.90;;;;;;5113608;28;20499;-63
2023/03/16 00:59:37;;;;;;;10.07;2.92;;;3.50;99.90;;;;;;5113233;28;20143;-63
2023/03/16 01:02:05;;;;;;;5.72;2.58;;;3.50;99.90;;;;;;5113710;28;20047;-64
2023/03/16 01:04:33;;;;;;;6.38;2.78;;;3.50;99.90;;;;;;5112761;28;20051;-64
2023/03/16 01:07:00;;;;;;;5.35;2.40;;;3.50;99.90;;;;;;5111891;28;20457;-64
2023/03/16 01:09:28;;;;;;;5.90;3.58;;;3.50;99.90;;;;;;5113536;28;20093;-64
2023/03/16 01:11:55;;;;;;;7.20;2.63;;;3.50;99.90;;;;;;5112166;28;20419;-64
2023/03/16 01:14:23;;;;;;;5.45;2.70;;;3.50;99.90;;;;;;5114147;28;20055;-64
2023/03/16 01:16:50;;;;;;;5.70;2.70;;;3.50;99.90;;;;;;5111934;28;20136;-64
2023/03/16 01:19:17;;;;;;;6.03;2.70;;;3.60;99.90;;;;;;5113870;28;20050;-64
2023/03/16 01:21:44;;;;;;;4.75;2.80;;;3.50;99.90;;;;;;5114057;28;20088;-63
2023/03/16 01:24:11;;;;;;;5.78;2.53;;;3.50;99.90;;;;;;5113077;28;20039;-64
2023/03/16 01:26:40;;;;;;;6.35;2.75;;;3.50;99.90;;;;;;5113916;28;20051;-63
2023/03/16 01:29:07;;;;;;;6.75;3.15;;;3.50;99.90;;;;;;5109964;28;20462;-64
2023/03/16 01:31:34;;;;;;;5.07;2.83;;;3.60;99.90;;;;;;5112629;28;20104;-63
2023/03/16 01:34:02;;;;;;;6.97;3.05;;;3.50;99.90;;;;;;5113566;28;20510;-64
2023/03/16 01:36:31;;;;;;;6.47;2.60;;;3.50;99.90;;;;;;5112774;28;20050;-63
2023/03/16 01:38:58;;;;;;;4.82;3.00;;;3.50;99.90;;;;;;5112197;28;20126;-63
2023/03/16 01:41:25;;;;;;;6.03;2.90;;;3.50;99.90;;;;;;5112422;28;20407;-63
2023/03/16 01:43:57;;;;;;;8.57;3.00;;;3.50;99.90;;;;;;5111869;28;20047;-63
2023/03/16 01:46:27;;;;;;;6.72;2.90;;;3.50;99.90;;;;;;5111538;28;20118;-63
2023/03/16 01:49:12;;;;;;;5.85;2.60;;;3.50;99.90;;;;;;5114150;28;20051;-63
2023/03/16 01:51:43;;;;;;;7.75;3.03;;;3.50;99.90;;;;;;5112719;28;20122;-64
2023/03/16 01:54:15;;;;;;;4.10;2.67;;;3.40;99.90;;;;;;5113527;28;20071;-63
2023/03/16 01:56:50;;;;;;;6.25;2.95;;;3.50;99.90;;;;;;5111749;28;20039;-63
2023/03/16 01:59:23;;;;;;;4.95;3.05;;;3.40;99.90;;;;;;5112458;28;20556;-63
2023/03/16 02:01:51;;;;;;;6.50;3.42;;;3.40;99.90;;;;;;5111157;28;20048;-63
2023/03/16 02:04:32;;;;;;;5.47;3.30;;;3.40;99.90;;;;;;5112040;28;20376;-63
2023/03/16 02:06:59;;;;;;;;;;;3.40;99.90;;;;;;5144050;27;20444;-63
2023/03/16 02:09:27;;;;;;;8.63;3.28;;;3.40;99.90;;;;;;5112729;28;19920;-63
2023/03/16 02:11:55;;;;;;;5.15;3.20;;;3.40;99.90;;;;;;5111306;28;20047;-63
2023/03/16 02:14:23;;;;;;;6.90;3.38;;;3.50;99.90;;;;;;5112786;28;20124;-64
2023/03/16 02:16:51;;;;;;;6.10;3.17;;;3.50;99.90;;;;;;5112557;28;20434;-64
2023/03/16 02:19:30;;;;;;;5.97;3.58;;;3.50;99.90;;;;;;5111008;28;20059;-64
2023/03/16 02:22:02;;;;;;;5.38;3.42;;;3.50;99.90;;;;;;5110787;28;20491;-63
2023/03/16 02:24:29;;;;;;;5.78;3.63;;;3.50;99.90;;;;;;5112536;28;20044;-64
2023/03/16 02:27:00;;;;;;;6.70;3.35;;;3.50;99.90;;;;;;5110745;28;20048;-63
2023/03/16 02:29:54;;;;;;;6.50;3.67;;;3.70;99.90;;;;;;5109655;28;20048;-63
2023/03/16 02:32:23;;;;;;;6.07;3.45;;;3.60;99.90;;;;;;5110922;28;20048;-64
2023/03/16 02:34:50;;;;;;;9.02;3.60;;;3.60;99.90;;;;;;5110315;28;20093;-63
2023/03/16 02:37:17;;;;;;;5.10;3.38;;;3.60;99.90;;;;;;5112250;28;20039;-63
2023/03/16 02:39:44;;;;;;;6.07;3.53;;;3.60;99.90;;;;;;5111812;28;20059;-64
2023/03/16 02:42:15;;;;;;;6.55;3.83;;;3.60;99.90;;;;;;5112614;28;20431;-64
2023/03/16 02:44:46;;;;;;;6.18;3.58;;;3.70;99.90;;;;;;5112653;28;20055;-63
2023/03/16 02:47:21;;;;;;;7.85;4.05;;;3.70;99.90;;;;;;5111942;28;20043;-64
2023/03/16 02:49:48;;;;;;;6.10;4.00;;;3.70;99.90;;;;;;5111078;28;20051;-63
2023/03/16 02:52:15;;;;;;;7.25;3.88;;;3.80;99.90;;;;;;5111319;28;20326;-63
2023/03/16 02:54:42;;;;;;;7.47;3.67;;;3.70;99.90;;;;;;5110456;28;20096;-63
2023/03/16 02:57:09;;;;;;;6.18;3.92;;;3.80;99.90;;;;;;5110774;28;20100;-63
2023/03/16 02:59:36;;;;;;;6.63;4.10;;;3.80;99.90;;;;;;5112507;28;20053;-63
2023/03/16 03:02:03;;;;;;;10.20;4.03;;;3.80;99.90;;;;;;5110425;28;20043;-63
2023/03/16 03:04:31;;;;;;;9.65;3.92;;;3.80;99.90;;;;;;5111956;28;20051;-64
2023/03/16 03:07:03;;;;;;;8.73;3.50;;;3.90;99.90;;;;;;5111934;28;20048;-63
2023/03/16 03:09:31;;;;;;;7.88;3.97;;;3.80;99.90;;;;;;5111650;28;20051;-63
2023/03/16 03:11:58;;;;;;;8.32;4.15;;;3.90;99.90;;;;;;5111053;28;20043;-63
2023/03/16 03:14:27;;;;;;;6.95;4.10;;;3.80;99.90;;;;;;5112207;28;20043;-63
2023/03/16 03:16:54;;;;;;;6.88;4.25;;;3.90;99.90;;;;;;5111368;28;20040;-64
2023/03/16 03:19:21;;;;;;;8.80;4.53;;;3.90;99.90;;;;;;5113033;28;20043;-64
2023/03/16 03:21:50;;;;;;;8.55;4.07;;;3.90;99.90;;;;;;5115707;28;20081;-63
2023/03/16 03:24:17;;;;;;;7.95;3.88;;;3.90;99.90;;;;;;5115034;28;20100;-64
2023/03/16 03:26:45;;;;;;;6.85;3.88;;;3.90;99.90;;;;;;5114505;28;20078;-64
2023/03/16 03:29:12;;;;;;;9.15;4.15;;;3.90;99.90;;;;;;5114364;28;20090;-64
2023/03/16 03:31:39;;;;;;;7.60;4.07;;;3.90;99.90;;;;;;5115826;28;20126;-63
2023/03/16 03:34:06;;;;;;;5.40;4.28;;;3.90;99.90;;;;;;5114684;28;20495;-64
2023/03/16 03:36:33;;;;;;;6.72;3.60;;;4.00;99.90;;;;;;5113796;28;20039;-63
2023/03/16 03:39:03;;;;;;;8.00;4.07;;;4.00;99.90;;;;;;5116052;28;20089;-63
2023/03/16 03:41:31;;;;;;;7.28;4.40;;;4.00;99.90;;;;;;5113989;28;20411;-64
2023/03/16 03:43:59;;;;;;;6.68;3.92;;;4.00;99.90;;;;;;5115104;28;20414;-64
2023/03/16 03:46:26;;;;;;;8.95;3.88;;;4.00;99.90;;;;;;5115434;28;20384;-64
2023/03/16 03:48:53;;;;;;;5.75;3.67;;;4.00;99.90;;;;;;5115923;28;20051;-64
2023/03/16 03:51:20;;;;;;;7.70;3.75;;;4.00;99.90;;;;;;5114920;28;20101;-64
2023/03/16 03:53:47;;;;;;;5.78;4.03;;;4.00;99.90;;;;;;5114447;28;20086;-63
2023/03/16 03:56:16;;;;;;;11.30;3.72;;;4.00;99.90;;;;;;5115423;28;20044;-63
2023/03/16 03:58:43;;;;;;;5.07;3.28;;;4.00;99.90;;;;;;5114879;28;20453;-64
2023/03/16 04:01:09;;;;;;;7.43;4.10;;;4.00;99.90;;;;;;5114387;28;20048;-63
2023/03/16 04:03:36;;;;;;;6.30;3.92;;;4.00;99.90;;;;;;5114364;28;20051;-63
2023/03/16 04:06:05;;;;;;;9.10;4.30;;;4.00;99.90;;;;;;5113188;28;20073;-63
2023/03/16 04:08:32;;;;;;;8.68;4.25;;;4.10;99.90;;;;;;5114339;28;20066;-64
2023/03/16 04:10:59;;;;;;;5.13;3.75;;;4.10;99.90;;;;;;5113479;28;20108;-64
2023/03/16 04:13:28;;;;;;;5.00;3.40;;;4.10;99.90;;;;;;5115437;28;20109;-63
2023/03/16 04:15:57;;;;;;;10.80;3.85;;;4.20;99.90;;;;;;5115166;28;20126;-63
2023/03/16 04:18:24;;;;;;;7.07;3.30;;;4.10;99.90;;;;;;5113365;28;20126;-63
2023/03/16 04:20:52;;;;;;;5.97;4.03;;;4.10;99.90;;;;;;5114871;28;20495;-64
2023/03/16 04:23:19;;;;;;;5.75;2.95;;;4.10;99.90;;;;;;5113970;28;20047;-63
2023/03/16 04:25:46;;;;;;;7.88;3.78;;;4.10;99.90;;;;;;5112136;28;20411;-63
2023/03/16 04:28:16;;;;;;;5.80;3.80;;;4.10;99.90;;;;;;5114865;28;20371;-63
2023/03/16 04:30:44;;;;;;;6.10;3.45;;;4.10;99.90;;;;;;5113713;28;20043;-64
2023/03/16 04:33:11;;;;;;;5.53;3.40;;;4.10;99.90;;;;;;5114446;28;20066;-63
2023/03/16 04:35:38;;;;;;;5.55;3.42;;;4.10;99.90;;;;;;5113662;28;20055;-63
2023/03/16 04:38:06;;;;;;;8.02;3.53;;;4.10;99.90;;;;;;5112975;28;20043;-63
2023/03/16 04:40:33;;;;;;;5.88;3.60;;;4.10;99.90;;;;;;5114154;28;20047;-63
2023/03/16 04:43:00;;;;;;;5.90;3.63;;;4.10;99.90;;;;;;5114645;28;20044;-64
2023/03/16 04:45:27;;;;;;;8.15;3.53;;;4.10;99.90;;;;;;5113080;28;20097;-64
2023/03/16 04:47:55;;;;;;;6.78;3.75;;;4.10;99.90;;;;;;5112820;28;20480;-64
2023/03/16 04:50:22;;;;;;;5.70;3.28;;;4.10;99.90;;;;;;5106702;28;20070;-64
2023/03/16 04:52:50;;;;;;;5.65;3.42;;;4.30;99.90;;;;;;5106691;28;20057;-63
2023/03/16 04:55:17;;;;;;;6.80;3.88;;;4.20;99.90;;;;;;5109901;28;20055;-63
2023/03/16 04:57:44;;;;;;;4.55;3.40;;;4.20;99.90;;;;;;5105686;28;20396;-63
2023/03/16 05:00:17;;;;;;;8.05;3.70;;;4.20;99.90;;;;;;5110160;28;20067;-63
2023/03/16 05:02:44;;;;;;;6.45;3.47;;;4.20;99.90;;;;;;5109345;28;20055;-63
2023/03/16 05:05:12;;;;;;;6.88;3.63;;;4.20;99.90;;;;;;5109139;28;20058;-63
2023/03/16 05:07:40;;;;;;;6.10;3.33;;;4.20;99.90;;;;;;5111976;28;20056;-63
2023/03/16 05:10:08;;;;;;;8.23;3.22;;;4.20;99.90;;;;;;5110030;28;20059;-63
2023/03/16 05:12:35;;;;;;;5.57;3.30;;;4.20;99.90;;;;;;5112905;28;20407;-63
2023/03/16 05:15:02;;;;;;;5.78;3.70;;;4.20;99.90;;;;;;5109432;28;20059;-63
2023/03/16 05:17:28;;;;;;;6.40;4.07;;;4.20;99.90;;;;;;5112420;28;20039;-62
2023/03/16 05:19:55;;;;;;;8.07;3.70;;;4.20;99.90;;;;;;5110452;28;20043;-63
2023/03/16 05:22:24;;;;;;;8.85;3.55;;;4.20;99.90;;;;;;5109919;28;20178;-63
2023/03/16 05:24:51;;;;;;;8.88;3.53;;;4.20;99.90;;;;;;5111404;28;20142;-63
2023/03/16 05:27:19;;;;;;;4.38;3.13;;;4.10;99.90;;;;;;5110969;28;20036;-62
2023/03/16 05:29:46;;;;;;;7.85;3.85;;;4.10;99.90;;;;;;5110232;28;20130;-63
2023/03/16 05:32:15;;;;;;;6.30;3.88;;;4.20;99.90;;;;;;5109407;28;20052;-63
2023/03/16 05:34:43;;;;;;;6.88;3.95;;;4.10;99.90;;;;;;5112651;28;20047;-64
2023/03/16 05:37:10;;;;;;;7.90;3.70;;;4.10;99.90;;;;;;5108542;28;20122;-64
2023/03/16 05:39:38;;;;;;;6.70;4.82;;;4.10;99.90;;;;;;5107760;28;20056;-64
2023/03/16 05:42:05;;;;;;;5.75;3.90;;;4.10;99.90;;;;;;5108387;28;20100;-64
2023/03/16 05:44:32;;;;;;;8.60;4.57;;;4.20;99.90;;;;;;5112231;28;20100;-64
2023/03/16 05:46:59;;;;;;;6.80;3.78;;;4.10;99.90;;;;;;5108001;28;20146;-64
2023/03/16 05:49:26;;;;;;;6.95;3.85;;;4.20;99.90;;;;;;5110404;28;20080;-64
2023/03/16 05:51:53;;;;;;;11.70;3.90;;;4.10;99.90;;;;;;5108819;28;20732;-63
2023/03/16 05:54:20;;;;;;;11.10;4.63;;;3.60;99.90;;;;;;5112679;28;20048;-63
2023/03/16 05:56:48;;;;;;;5.10;3.65;;;4.20;99.90;;;;;;5107333;28;20599;-64
2023/03/16 05:59:16;;;;;;;9.40;3.85;;;4.20;99.90;;;;;;5110935;28;20104;-63
2023/03/16 06:01:43;;;;;;;11.00;3.58;;;4.20;99.90;;;;;;5108824;28;20062;-63
2023/03/16 06:04:10;;;;;;;6.00;4.05;;;4.20;99.90;;;;;;5109136;28;20043;-63
2023/03/16 06:06:38;;;;;;;7.60;4.57;;;4.20;99.90;;;;;;5108257;28;20445;-63
2023/03/16 06:09:04;;;;;;;5.60;4.07;;;4.20;99.90;;;;;;5138090;27;20488;-63
2023/03/16 06:11:31;;;;;;;7.28;4.07;;;4.20;99.90;;;;;;5110826;28;20062;-63
2023/03/16 06:14:00;;;;;;;7.65;3.55;;;4.20;99.90;;;;;;5108466;28;20385;-64
2023/03/16 06:16:27;;;;;;;6.55;3.75;;;4.20;99.90;;;;;;5110534;28;20142;-64
2023/03/16 06:18:55;;;;;;;5.38;3.80;;;4.20;99.90;;;;;;5109416;28;20109;-64
2023/03/16 06:21:22;;;;;;;8.48;3.63;;;4.20;99.90;;;;;;5107209;28;20547;-65
2023/03/16 06:23:49;;;;;;;8.98;4.30;;;4.20;99.90;;;;;;5106993;28;20089;-65
2023/03/16 06:26:16;;;;;;;6.85;3.75;;;4.30;99.90;;;;;;5108392;28;20054;-64
2023/03/16 06:28:43;;;;;;;7.65;4.20;;;4.40;99.90;;;;;;5107826;28;20047;-64
2023/03/16 06:31:11;;;;;;;8.90;4.57;;;4.30;99.90;;;;;;5107208;28;20078;-64
2023/03/16 06:33:38;;;;;;;8.00;4.05;;;4.30;99.90;;;;;;5107174;28;20093;-64
2023/03/16 06:36:06;;;;;;;6.53;4.00;;;4.30;99.90;;;;;;5107094;28;20047;-64
2023/03/16 06:38:32;;;;;;;6.40;3.83;;;4.30;99.90;;;;;;5105883;28;20048;-64
2023/03/16 06:41:00;;;;;;;7.70;3.92;;;4.40;99.90;;;;;;5107767;28;20043;-63
2023/03/16 06:43:27;;;;;;;8.10;4.40;;;4.40;99.90;;;;;;5108741;28;20093;-63
2023/03/16 06:45:54;;;;;;;7.45;4.22;;;4.40;99.90;;;;;;5107813;28;20051;-63
2023/03/16 06:48:22;;;;;;;12.55;3.97;;;4.40;99.90;;;;;;5111541;28;20114;-64
2023/03/16 06:50:49;;;;;;;6.63;3.90;;;5.00;99.90;;;;;;5111330;28;20047;-64
2023/03/16 06:53:16;;;;;;;8.52;3.85;;;4.50;99.90;;;;;;5111624;28;20047;-64
2023/03/16 06:55:43;;;;;;;8.27;4.35;;;4.40;99.90;;;;;;5116506;28;20442;-64
2023/03/16 06:58:10;;;;;;;5.30;3.60;;;4.50;99.90;;;;;;5114430;28;20052;-64
2023/03/16 07:00:37;;;;;;;5.60;4.03;;;4.50;99.90;;;;;;5114906;28;20063;-64
2023/03/16 07:03:04;;;;;;;8.02;4.20;;;4.50;99.90;;;;;;5116058;28;20510;-64
2023/03/16 07:05:32;;;;;;;5.05;3.78;;;4.50;99.90;;;;;;5114933;28;20051;-64
2023/03/16 07:08:00;;;;;;;5.80;3.75;;;4.60;99.90;;;;;;5115244;28;20543;-64
2023/03/16 07:10:27;;;;;;;5.55;3.72;;;4.60;99.90;;;;;;5114837;28;20126;-63
2023/03/16 07:12:55;;;;;;;9.48;4.25;;;4.60;99.90;;;;;;5116240;28;20048;-63
2023/03/16 07:15:24;;;;;;;7.53;4.45;;;4.60;99.90;;;;;;5115740;28;20053;-63
2023/03/16 07:17:51;;;;;;;4.90;3.10;;;4.70;99.90;;;;;;5115964;28;20046;-63
2023/03/16 07:20:20;;;;;;;7.57;3.50;;;4.60;99.90;;;;;;5114942;28;20139;-63
2023/03/16 07:22:49;;;;;;;5.60;3.78;;;4.70;99.90;;;;;;5115954;28;20498;-64
2023/03/16 07:25:15;;;;;;;5.95;3.30;;;4.70;99.90;;;;;;5114044;28;20051;-63
2023/03/16 07:27:44;;;;;;;7.35;3.80;;;4.80;99.90;;;;;;5115625;28;20051;-64
2023/03/16 07:30:13;;;;;;;7.10;3.45;;;4.80;99.90;;;;;;5114294;28;20436;-63
2023/03/16 07:32:40;;;;;;;6.63;3.83;;;4.80;99.90;;;;;;5112623;28;20074;-64
2023/03/16 07:35:08;;;;;;;6.18;3.55;;;4.90;99.90;;;;;;5115160;28;20441;-63
2023/03/16 07:37:35;;;;;;;5.95;4.03;;;4.90;99.90;;;;;;5112120;28;20078;-63
2023/03/16 07:40:07;;;;;;;10.13;3.47;;;4.90;99.90;;;;;;5115835;28;20040;-63
2023/03/16 07:42:35;;;;;;;6.00;4.00;;;5.00;99.90;;;;;;5114051;28;21222;-63
2023/03/16 07:45:02;;;;;;;7.05;3.50;;;5.00;99.90;;;;;;5115824;28;20453;-64
2023/03/16 07:47:29;;;;;;;6.10;3.28;;;5.00;99.90;;;;;;5115349;28;20050;-63
2023/03/16 07:49:56;;;;;;;5.43;3.60;;;5.00;99.90;;;;;;5113891;28;20487;-64
2023/03/16 07:52:23;;;;;;;8.32;3.70;;;5.00;99.90;;;;;;5112116;28;20449;-63
2023/03/16 07:54:50;;;;;;;8.55;3.60;;;5.10;99.90;;;;;;5115559;28;20404;-64
2023/03/16 07:57:19;;;;;;;8.52;3.65;;;5.20;99.90;;;;;;5114590;28;20039;-64
2023/03/16 07:59:46;;;;;;;7.03;4.05;;;5.30;99.90;;;;;;5115269;28;20040;-64
2023/03/16 08:02:14;;;;;;;5.53;3.50;;;5.40;99.90;;;;;;5114346;28;20119;-64
2023/03/16 08:04:41;;;;;;;4.10;3.13;;;5.40;99.90;;;;;;5110997;28;20564;-64
2023/03/16 08:07:08;;;;;;;6.97;3.45;;;5.40;99.90;;;;;;5113682;28;20108;-64
2023/03/16 08:09:35;;;;;;;4.75;3.20;;;5.40;99.90;;;;;;5115166;28;20128;-64
2023/03/16 08:12:03;;;;;;;7.25;3.88;;;5.40;99.90;;;;;;5113505;28;20051;-64
2023/03/16 08:14:33;;;;;;;6.07;4.07;;;5.30;99.90;;;;;;5115053;28;20444;-64
2023/03/16 08:17:00;;;;;;;6.13;3.40;;;5.30;99.90;;;;;;5113924;28;20051;-64
2023/03/16 08:19:27;;;;;;;6.20;3.65;;;5.30;99.90;;;;;;5114612;28;20100;-64
2023/03/16 08:21:55;;;;;;;4.40;3.50;;;5.20;99.90;;;;;;5115304;28;20047;-65
2023/03/16 08:24:22;;;;;;;8.50;3.78;;;5.20;99.90;;;;;;5113525;28;20506;-65
2023/03/16 08:26:49;;;;;;;4.90;3.28;;;5.10;99.90;;;;;;5115026;28;20048;-65
2023/03/16 08:29:17;;;;;;;9.27;4.00;;;5.20;99.90;;;;;;5114833;28;20122;-63
2023/03/16 08:31:45;;;;;;;5.30;3.78;;;5.10;99.90;;;;;;5112974;28;20507;-63
2023/03/16 08:34:12;;;;;;;7.05;4.43;;;5.10;99.90;;;;;;5113360;28;20051;-63
2023/03/16 08:36:42;;;;;;;6.68;4.30;;;5.10;99.90;;;;;;5114618;28;20051;-64
2023/03/16 08:39:09;;;;;;;7.32;3.60;;;5.10;99.90;;;;;;5112707;28;20040;-63
2023/03/16 08:41:36;;;;;;;7.72;3.88;;;5.20;99.90;;;;;;5113168;28;20044;-64
2023/03/16 08:44:03;;;;;;;6.50;4.00;;;5.20;99.90;;;;;;5114430;28;20048;-64
2023/03/16 08:46:30;;;;;;;6.95;3.83;;;5.10;99.90;;;;;;5113663;28;21107;-63
2023/03/16 08:48:59;;;;;;;6.20;3.70;;;5.10;99.90;;;;;;5112851;28;20043;-64
2023/03/16 08:51:26;;;;;;;7.93;3.88;;;5.10;99.90;;;;;;5113284;28;20108;-63
2023/03/16 08:53:53;;;;;;;7.25;4.10;;;5.20;99.90;;;;;;5113699;28;20051;-64
2023/03/16 08:56:20;;;;;;;10.55;3.95;;;5.10;99.90;;;;;;5112880;28;20054;-64
2023/03/16 08:58:47;;;;;;;6.38;4.43;;;5.10;99.90;;;;;;5112564;28;20039;-63
2023/03/16 09:01:16;;;;;;;6.75;3.45;;;5.20;99.90;;;;;;5112551;28;20494;-64
2023/03/16 09:03:44;;;;;;;6.88;4.15;;;5.20;99.90;;;;;;5114034;28;20039;-63
2023/03/16 09:06:14;;;;;;;6.18;3.83;;;5.20;99.90;;;;;;5112646;28;20060;-64
2023/03/16 09:08:43;;;;;;;11.88;4.35;;;5.20;99.90;;;;;;5112301;28;20048;-64
2023/03/16 09:11:13;;;;;;;9.27;4.10;;;5.10;99.90;;;;;;5112097;28;20058;-64
2023/03/16 09:13:41;;;;;;;6.77;3.73;;;5.10;99.90;;;;;;5112232;28;20763;-63
2023/03/16 09:16:10;;;;;;;6.70;4.28;;;5.10;99.90;;;;;;5112309;28;20640;-64
2023/03/16 09:18:38;;;;;;;6.07;4.15;;;5.10;99.90;;;;;;5111736;28;20071;-64
2023/03/16 09:21:09;;;;;;;5.13;4.03;;;5.00;99.90;;;;;;5113250;28;20047;-64
2023/03/16 09:23:37;;;;;;;10.43;4.50;;;5.00;99.90;;;;;;5113511;28;20645;-63
2023/03/16 09:26:06;;;;;;;9.13;4.47;;;5.00;99.90;;;;;;5113941;28;20044;-63
2023/03/16 09:28:34;;;;;;;7.60;4.43;;;5.00;99.90;;;;;;5111673;28;20444;-63
2023/03/16 09:31:03;;;;;;;7.80;4.32;;;5.00;99.90;;;;;;5112427;28;20047;-63
2023/03/16 09:33:30;;;;;;;6.50;4.13;;;5.10;99.90;;;;;;5113455;28;20126;-63
2023/03/16 09:35:57;;;;;;;6.63;4.13;;;5.10;99.90;;;;;;5111875;28;20048;-63
2023/03/16 09:38:25;;;;;;;6.85;4.22;;;5.10;99.90;;;;;;5111760;28;20088;-63
2023/03/16 09:41:00;;;;;;;6.72;4.60;;;5.30;99.90;;;;;;5112272;28;20047;-64
2023/03/16 09:43:44;;;;;;;9.27;4.40;;;5.40;99.90;;;;;;5111607;28;20052;-64
2023/03/16 09:46:15;;;;;;;9.38;4.50;;;5.50;99.90;;;;;;5113356;28;20040;-64
2023/03/16 09:48:41;;;;;;;;;;;5.60;99.90;;;;;;5112944;28;20115;-64
2023/03/16 09:51:17;;;;;;;8.93;5.03;;;5.70;99.90;;;;;;5113352;28;19977;-63
2023/03/16 09:53:49;;;;;;;6.63;4.13;;;5.90;99.90;;;;;;5113143;28;20392;-63
2023/03/16 09:56:27;;;;;;;7.43;4.30;;;5.80;99.90;;;;;;5112637;28;20070;-63
2023/03/16 09:58:55;;;;;;;6.30;4.22;;;5.80;99.90;;;;;;5111604;28;20093;-63
2023/03/16 10:01:30;;;;;;;7.88;3.90;;;5.80;99.90;;;;;;5112970;28;20126;-63
2023/03/16 10:04:16;;;;;;;7.93;4.20;;;5.70;99.90;;;;;;5111388;28;20044;-63
2023/03/16 10:06:50;;;;;;;6.47;4.15;;;5.60;99.90;;;;;;5110883;28;20518;-63
2023/03/16 10:09:28;;;;;;;7.95;4.22;;;5.60;99.90;;;;;;5110021;28;20441;-63
2023/03/16 10:12:01;;;;;;;8.27;4.80;;;5.60;99.90;;;;;;5109970;28;20101;-63
2023/03/16 10:14:34;;;;;;;8.60;5.22;;;5.60;99.90;;;;;;5111591;28;20078;-63
2023/03/16 10:17:04;;;;;;;11.82;5.15;;;5.60;99.90;;;;;;5109137;28;20495;-63
2023/03/16 10:19:37;;;;;;;7.97;4.85;;;5.70;99.90;;;;;;5112625;28;20457;-63
2023/03/16 10:22:16;;;;;;;9.20;4.40;;;5.80;99.90;;;;;;5112574;28;20080;-63
2023/03/16 10:24:52;;;;;;;12.27;4.68;;;5.70;99.90;;;;;;5108611;28;20048;-63
2023/03/16 10:27:27;;;;;;;7.25;4.68;;;5.70;99.90;;;;;;5109384;28;20047;-63
2023/03/16 10:29:54;;;;;;;8.77;4.28;;;5.70;99.90;;;;;;5110447;28;20503;-63
2023/03/16 10:32:23;;;;;;;6.35;4.13;;;5.70;99.90;;;;;;5111675;28;20059;-63
2023/03/16 10:34:56;;;;;;;7.00;4.50;;;5.60;99.90;;;;;;5111389;28;20093;-63
2023/03/16 10:37:25;;;;;;;5.53;3.85;;;5.60;99.90;;;;;;5109808;28;20176;-63
2023/03/16 10:39:55;;;;;;;8.30;5.00;;;5.60;99.90;;;;;;5111613;28;20147;-63
2023/03/16 10:42:25;;;;;;;9.27;4.50;;;5.70;99.90;;;;;;5112324;28;20465;-63
2023/03/16 10:44:57;;;;;;;11.82;4.95;;;5.60;99.90;;;;;;5110399;28;20291;-63
2023/03/16 10:47:28;;;;;;;8.32;4.22;;;5.60;99.90;;;;;;5109609;28;20047;-63
2023/03/16 10:49:55;;;;;;;9.90;4.85;;;5.70;99.90;;;;;;5108787;28;20057;-63
2023/03/16 10:52:34;;;;;;;10.00;4.82;;;5.70;99.90;;;;;;5111704;28;20048;-63
2023/03/16 10:55:07;;;;;;;7.57;4.57;;;5.80;99.90;;;;;;5112132;28;20448;-63
2023/03/16 10:57:36;;;;;;;6.00;4.35;;;5.70;99.90;;;;;;5112084;28;20051;-63
2023/03/16 11:00:11;;;;;;;7.82;4.70;;;5.80;99.90;;;;;;5110247;28;20040;-63
2023/03/16 11:02:39;;;;;;;6.22;4.05;;;5.80;99.90;;;;;;5111023;28;20048;-63
2023/03/16 11:05:14;;;;;;;10.25;4.43;;;5.90;99.90;;;;;;5112034;28;20255;-63
2023/03/16 11:07:48;;;;;;;11.35;4.07;;;6.60;99.90;;;;;;5108340;28;20100;-63
2023/03/16 11:10:27;;;;;;;7.28;4.75;;;5.80;99.90;;;;;;5112244;28;20055;-64
2023/03/16 11:13:02;;;;;;;6.40;4.00;;;5.90;99.90;;;;;;5110213;28;20044;-64
2023/03/16 11:15:36;;;;;;;5.63;4.00;;;5.90;99.90;;;;;;5143655;27;20452;-63
2023/03/16 11:18:04;;;;;;;6.15;3.63;;;6.00;99.90;;;;;;5110346;28;20047;-63
2023/03/16 11:20:34;;;;;;;8.00;4.13;;;6.00;99.90;;;;;;5111259;28;20051;-63
2023/03/16 11:23:01;;;;;;;6.28;4.03;;;6.20;99.90;;;;;;5110933;28;20052;-63
2023/03/16 11:25:32;;;;;;;6.18;3.75;;;6.30;99.90;;;;;;5112109;28;20051;-63
2023/03/16 11:28:12;;;;;;;9.15;4.13;;;6.40;99.90;;;;;;5108189;28;20520;-63
2023/03/16 11:30:43;;;;;;;6.85;4.00;;;6.50;99.90;;;;;;5110497;28;20104;-64
2023/03/16 11:33:13;;;;;;;10.98;4.10;;;6.60;99.90;;;;;;5143370;27;20055;-63
2023/03/16 11:35:50;;;;;;;5.82;3.70;;;6.70;99.90;;;;;;5111274;28;20043;-63
2023/03/16 11:38:20;;;;;;;5.63;3.92;;;6.80;99.90;;;;;;5111721;28;20472;-63
2023/03/16 11:40:54;;;;;;;5.80;3.78;;;6.90;99.90;;;;;;5114442;28;20048;-64
2023/03/16 11:43:51;;;;;;;6.90;3.78;;;6.90;99.90;;;;;;5114060;28;20078;-64
2023/03/16 11:46:22;;;;;;;5.82;3.80;;;7.00;99.90;;;;;;5115506;28;20104;-64
2023/03/16 11:48:58;;;;;;;7.15;3.75;;;7.10;99.90;;;;;;5114879;28;20039;-63
2023/03/16 11:51:36;;;;;;;6.53;3.50;;;7.10;99.90;;;;;;5113579;28;20108;-63
2023/03/16 11:54:23;;;;;;;6.30;3.63;;;7.20;99.90;;;;;;5114417;28;20412;-63
2023/03/16 11:56:54;;;;;;;5.25;3.15;;;7.30;99.90;;;;;;5112457;28;20051;-65
2023/03/16 11:59:55;;;;;;;5.60;3.22;;;7.30;99.90;;;;;;5113960;28;20104;-63
2023/03/16 12:02:39;;;;;;;6.72;3.60;;;7.30;99.90;;;;;;5044993;28;20051;-64
2023/03/16 12:05:23;;;;;;;8.55;3.67;;;7.30;99.90;;;;;;5113877;28;20112;-64
2023/03/16 12:08:00;;;;;;;4.53;3.03;;;7.40;99.90;;;;;;5113972;28;20066;-64
2023/03/16 12:10:35;;;;;;;6.93;3.55;;;7.60;99.90;;;;;;5112415;28;20069;-64
2023/03/16 12:13:16;;;;;;;6.05;3.42;;;7.70;99.90;;;;;;5112080;28;20049;-64
2023/03/16 12:15:48;;;;;;;7.10;3.65;;;8.00;99.90;;;;;;5112536;28;20108;-64
2023/03/16 12:18:20;;;;;;;5.53;3.20;;;8.30;99.90;;;;;;5146246;27;20047;-64
2023/03/16 12:20:55;;;;;;;5.00;2.90;;;8.50;99.90;;;;;;5113888;28;20051;-64
2023/03/16 12:23:29;;;;;;;9.00;4.03;;;8.60;99.90;;;;;;5111293;28;20101;-63
2023/03/16 12:25:58;;;;;;;4.22;3.15;;;8.60;99.90;;;;;;5111769;28;20056;-64
2023/03/16 12:28:27;;;;;;;6.80;3.38;;;8.70;99.90;;;;;;5113567;28;20075;-64
2023/03/16 12:31:16;;;;;;;4.20;2.95;;;8.80;99.90;;;;;;5114175;28;20407;-63
2023/03/16 12:34:01;;;;;;;6.07;3.92;;;8.80;99.90;;;;;;5111935;28;20089;-63
2023/03/16 12:37:11;;;;;;;6.65;3.92;;;8.90;99.90;;;;;;5114268;28;20456;-64
2023/03/16 12:40:06;;;;;;;7.07;3.45;;;9.00;99.90;;;;;;5088148;28;20047;-64
2023/03/16 12:42:48;;;;;;;8.55;3.47;;;9.30;99.90;;;;;;5108655;28;20056;-64
2023/03/16 12:45:23;;;;;;;7.68;3.40;;;9.60;99.90;;;;;;5112654;28;20511;-64
2023/03/16 12:48:01;;;;;;;6.28;3.15;;;9.60;99.90;;;;;;5114297;28;20044;-64
2023/03/16 12:50:28;;;;;;;7.20;3.38;;;9.50;99.90;;;;;;5113616;28;20411;-65
2023/03/16 12:52:56;;;;;;;5.28;2.75;;;9.40;99.90;;;;;;5112832;28;20040;-64
2023/03/16 12:55:26;;;;;;;7.53;3.05;;;9.20;99.90;;;;;;5113202;28;20054;-64
2023/03/16 12:58:00;;;;;;;6.15;3.22;;;9.10;99.90;;;;;;5114096;28;20071;-63
2023/03/16 13:00:34;;;;;;;6.68;3.45;;;9.10;99.90;;;;;;5112100;28;20122;-64
2023/03/16 13:03:04;;;;;;;6.45;3.15;;;9.10;99.90;;;;;;5111968;28;20078;-63
2023/03/16 13:05:33;;;;;;;5.35;3.47;;;9.20;99.90;;;;;;5111416;28;20073;-64
2023/03/16 13:08:09;;;;;;;7.68;3.45;;;9.00;99.90;;;;;;5113912;28;20035;-63
2023/03/16 13:10:37;;;;;;;5.03;3.15;;;9.00;99.90;;;;;;5113902;28;20046;-64